createdAt,value
2018-06-23T00:00:34.053Z,0
2018-06-23T00:01:33.238Z,0
2018-06-23T00:02:33.489Z,0
2018-06-23T00:03:33.467Z,0
2018-06-23T00:04:33.459Z,0
2018-06-23T00:05:33.981Z,0
2018-06-23T00:06:33.424Z,0
2018-06-23T00:07:33.146Z,0
2018-06-23T00:08:33.135Z,0
2018-06-23T00:09:33.647Z,0
2018-06-23T00:10:33.629Z,0
2018-06-23T00:11:33.346Z,0
2018-06-23T00:12:33.349Z,0
2018-06-23T00:13:33.101Z,0
2018-06-23T00:14:33.567Z,0
2018-06-23T00:15:33.558Z,0
2018-06-23T00:16:33.273Z,0
2018-06-23T00:17:32.985Z,0
2018-06-23T00:18:32.985Z,0
2018-06-23T00:19:33.500Z,0
2018-06-23T00:20:33.479Z,0
2018-06-23T00:21:33.467Z,0
2018-06-23T00:22:33.446Z,0
2018-06-23T00:23:33.699Z,0
2018-06-23T00:24:33.153Z,0
2018-06-23T00:25:32.876Z,0
2018-06-23T00:26:33.390Z,0
2018-06-23T00:27:32.858Z,0
2018-06-23T00:28:33.366Z,0
2018-06-23T00:29:33.082Z,0
2018-06-23T00:30:33.326Z,0
2018-06-23T00:31:33.323Z,0
2018-06-23T00:32:32.773Z,0
2018-06-23T00:33:33.750Z,0
2018-06-23T00:34:33.017Z,0
2018-06-23T00:35:33.375Z,0
2018-06-23T00:36:33.272Z,0
2018-06-23T00:37:32.973Z,0
2018-06-23T00:38:33.480Z,0
2018-06-23T00:39:32.931Z,0
2018-06-23T00:40:32.665Z,0
2018-06-23T00:41:32.636Z,0
2018-06-23T00:42:32.902Z,0
2018-06-23T00:43:32.869Z,0
2018-06-23T00:44:33.241Z,0
2018-06-23T00:45:32.596Z,0
2018-06-23T00:46:33.199Z,0
2018-06-23T00:47:33.062Z,0
2018-06-23T00:48:32.535Z,0
2018-06-23T00:49:32.784Z,0
2018-06-23T00:50:33.193Z,0
2018-06-23T00:51:33.013Z,0
2018-06-23T00:52:32.749Z,0
2018-06-23T00:53:32.466Z,0
2018-06-23T00:54:32.709Z,0
2018-06-23T00:55:33.010Z,0
2018-06-23T00:56:32.941Z,0
2018-06-23T00:57:33.062Z,0
2018-06-23T00:58:32.661Z,0
2018-06-23T00:59:32.375Z,0
2018-06-23T01:00:32.629Z,0
2018-06-23T01:01:33.137Z,0
2018-06-23T01:02:32.589Z,0
2018-06-23T01:03:32.594Z,0
2018-06-23T01:04:32.833Z,0
2018-06-23T01:05:32.540Z,0
2018-06-23T01:06:32.532Z,0
2018-06-23T01:07:33.041Z,0
2018-06-23T01:08:32.857Z,0
2018-06-23T01:09:32.219Z,0
2018-06-23T01:10:32.704Z,0
2018-06-23T01:11:32.999Z,0
2018-06-23T01:12:32.451Z,0
2018-06-23T01:13:32.430Z,0
2018-06-23T01:14:32.418Z,0
2018-06-23T01:15:32.406Z,0
2018-06-23T01:16:32.661Z,0
2018-06-23T01:17:32.633Z,0
2018-06-23T01:18:32.089Z,0
2018-06-23T01:19:32.566Z,0
2018-06-23T01:20:32.860Z,0
2018-06-23T01:21:32.308Z,0
2018-06-23T01:22:32.031Z,0
2018-06-23T01:23:32.558Z,0
2018-06-23T01:24:32.531Z,0
2018-06-23T01:25:32.250Z,0
2018-06-23T01:26:32.438Z,0
2018-06-23T01:27:32.489Z,0
2018-06-23T01:28:32.224Z,0
2018-06-23T01:29:32.186Z,0
2018-06-23T01:30:31.910Z,0
2018-06-23T01:31:32.426Z,0
2018-06-23T01:32:32.930Z,0
2018-06-23T01:33:32.231Z,0
2018-06-23T01:34:32.380Z,0
2018-06-23T01:35:31.837Z,0
2018-06-23T01:36:31.818Z,0
2018-06-23T01:37:32.331Z,0
2018-06-23T01:38:32.056Z,0
2018-06-23T01:39:32.313Z,0
2018-06-23T01:40:32.038Z,0
2018-06-23T01:41:32.015Z,0
2018-06-23T01:42:32.260Z,0
2018-06-23T01:43:31.978Z,0
2018-06-23T01:44:32.019Z,0
2018-06-23T01:45:32.230Z,0
2018-06-23T01:46:31.936Z,0
2018-06-23T01:47:32.441Z,0
2018-06-23T01:48:32.276Z,0
2018-06-23T01:49:32.458Z,0
2018-06-23T01:50:31.879Z,0
2018-06-23T01:51:31.856Z,0
2018-06-23T01:52:31.573Z,0
2018-06-23T01:53:32.093Z,0
2018-06-23T01:54:32.094Z,0
2018-06-23T01:55:32.328Z,0
2018-06-23T01:56:31.792Z,0
2018-06-23T01:57:32.019Z,0
2018-06-23T01:58:32.282Z,0
2018-06-23T01:59:31.994Z,0
2018-06-23T02:00:31.457Z,0
2018-06-23T02:01:32.234Z,0
2018-06-23T02:02:31.420Z,0
2018-06-23T02:03:31.407Z,0
2018-06-23T02:04:31.916Z,0
2018-06-23T02:05:31.910Z,0
2018-06-23T02:06:32.168Z,0
2018-06-23T02:07:31.351Z,0
2018-06-23T02:08:31.864Z,0
2018-06-23T02:09:31.150Z,0
2018-06-23T02:10:31.839Z,0
2018-06-23T02:11:31.949Z,0
2018-06-23T02:12:31.841Z,0
2018-06-23T02:13:32.050Z,0
2018-06-23T02:14:31.247Z,0
2018-06-23T02:15:31.502Z,0
2018-06-23T02:16:31.761Z,0
2018-06-23T02:17:31.206Z,0
2018-06-23T02:18:31.444Z,0
2018-06-23T02:19:31.228Z,0
2018-06-23T02:20:31.156Z,0
2018-06-23T02:21:31.745Z,0
2018-06-23T02:22:31.978Z,0
2018-06-23T02:23:31.380Z,0
2018-06-23T02:24:31.096Z,0
2018-06-23T02:25:31.081Z,0
2018-06-23T02:26:31.329Z,0
2018-06-23T02:27:31.311Z,0
2018-06-23T02:28:31.570Z,0
2018-06-23T02:29:31.285Z,0
2018-06-23T02:30:31.532Z,0
2018-06-23T02:31:31.253Z,0
2018-06-23T02:32:31.509Z,0
2018-06-23T02:33:31.221Z,0
2018-06-23T02:34:31.211Z,0
2018-06-23T02:35:31.195Z,0
2018-06-23T02:36:31.177Z,0
2018-06-23T02:37:31.158Z,0
2018-06-23T02:38:31.148Z,0
2018-06-23T02:39:31.407Z,0
2018-06-23T02:40:31.111Z,0
2018-06-23T02:41:31.102Z,0
2018-06-23T02:42:31.089Z,0
2018-06-23T02:43:30.804Z,0
2018-06-23T02:44:31.591Z,0
2018-06-23T02:45:30.778Z,0
2018-06-23T02:46:31.288Z,0
2018-06-23T02:47:31.281Z,0
2018-06-23T02:48:31.540Z,0
2018-06-23T02:49:31.503Z,0
2018-06-23T02:50:31.240Z,0
2018-06-23T02:51:30.684Z,0
2018-06-23T02:52:30.937Z,0
2018-06-23T02:53:30.694Z,0
2018-06-23T02:54:30.904Z,0
2018-06-23T02:55:31.173Z,0
2018-06-23T02:56:31.397Z,0
2018-06-23T02:57:30.590Z,0
2018-06-23T02:58:30.839Z,0
2018-06-23T02:59:30.568Z,0
2018-06-23T03:00:31.065Z,0
2018-06-23T03:01:31.059Z,0
2018-06-23T03:02:31.312Z,0
2018-06-23T03:03:31.022Z,0
2018-06-23T03:04:30.745Z,0
2018-06-23T03:05:31.054Z,0
2018-06-23T03:06:30.717Z,0
2018-06-23T03:07:30.972Z,0
2018-06-23T03:08:30.951Z,0
2018-06-23T03:09:30.929Z,0
2018-06-23T03:10:31.185Z,0
2018-06-23T03:11:30.384Z,0
2018-06-23T03:12:30.881Z,0
2018-06-23T03:13:30.342Z,0
2018-06-23T03:14:30.589Z,0
2018-06-23T03:15:30.842Z,0
2018-06-23T03:16:31.093Z,0
2018-06-23T03:17:30.812Z,0
2018-06-23T03:18:31.055Z,0
2018-06-23T03:19:30.784Z,5
2018-06-23T03:20:30.692Z,5
2018-06-23T03:21:31.019Z,5
2018-06-23T03:22:30.725Z,5
2018-06-23T03:23:30.711Z,5
2018-06-23T03:24:30.971Z,5
2018-06-23T03:25:30.163Z,5
2018-06-23T03:26:30.662Z,5
2018-06-23T03:27:30.397Z,5
2018-06-23T03:28:30.637Z,5
2018-06-23T03:29:29.815Z,5
2018-06-23T03:30:30.345Z,5
2018-06-23T03:31:30.596Z,5
2018-06-23T03:32:30.037Z,5
2018-06-23T03:33:30.023Z,5
2018-06-23T03:34:30.549Z,5
2018-06-23T03:35:30.528Z,5
2018-06-23T03:36:29.979Z,5
2018-06-23T03:37:30.258Z,5
2018-06-23T03:38:29.940Z,10
2018-06-23T03:39:29.930Z,10
2018-06-23T03:40:30.177Z,10
2018-06-23T03:41:29.903Z,10
2018-06-23T03:42:30.415Z,10
2018-06-23T03:43:30.133Z,10
2018-06-23T03:44:30.386Z,10
2018-06-23T03:45:30.370Z,10
2018-06-23T03:46:30.089Z,10
2018-06-23T03:47:30.340Z,10
2018-06-23T03:48:29.789Z,10
2018-06-23T03:49:30.040Z,15
2018-06-23T03:50:30.032Z,15
2018-06-23T03:51:29.746Z,15
2018-06-23T03:52:29.985Z,15
2018-06-23T03:53:29.979Z,15
2018-06-23T03:54:30.219Z,15
2018-06-23T03:55:30.208Z,15
2018-06-23T03:56:29.929Z,10
2018-06-23T03:57:30.175Z,10
2018-06-23T03:58:29.634Z,10
2018-06-23T03:59:29.876Z,10
2018-06-23T04:00:30.134Z,10
2018-06-23T04:01:29.853Z,10
2018-06-23T04:02:29.829Z,10
2018-06-23T04:03:30.476Z,10
2018-06-23T04:04:30.068Z,10
2018-06-23T04:05:30.308Z,15
2018-06-23T04:06:29.506Z,15
2018-06-23T04:07:30.024Z,15
2018-06-23T04:08:30.001Z,15
2018-06-23T04:09:29.717Z,15
2018-06-23T04:10:29.701Z,15
2018-06-23T04:11:29.794Z,15
2018-06-23T04:12:29.147Z,15
2018-06-23T04:13:29.932Z,15
2018-06-23T04:14:29.128Z,15
2018-06-23T04:15:29.634Z,15
2018-06-23T04:16:29.877Z,15
2018-06-23T04:17:29.344Z,15
2018-06-23T04:18:29.314Z,15
2018-06-23T04:19:29.566Z,15
2018-06-23T04:20:29.556Z,15
2018-06-23T04:21:29.799Z,20
2018-06-23T04:22:29.523Z,20
2018-06-23T04:23:29.237Z,25
2018-06-23T04:24:29.492Z,25
2018-06-23T04:25:29.740Z,25
2018-06-23T04:26:29.719Z,30
2018-06-23T04:27:29.446Z,30
2018-06-23T04:28:29.690Z,30
2018-06-23T04:29:29.793Z,35
2018-06-23T04:30:29.392Z,35
2018-06-23T04:31:29.393Z,40
2018-06-23T04:32:29.625Z,40
2018-06-23T04:33:29.357Z,40
2018-06-23T04:34:29.337Z,40
2018-06-23T04:35:29.640Z,35
2018-06-23T04:36:29.348Z,30
2018-06-23T04:37:29.570Z,35
2018-06-23T04:38:29.280Z,30
2018-06-23T04:39:28.992Z,30
2018-06-23T04:40:29.762Z,35
2018-06-23T04:41:29.483Z,40
2018-06-23T04:42:28.948Z,40
2018-06-23T04:43:29.193Z,40
2018-06-23T04:44:29.742Z,35
2018-06-23T04:45:29.421Z,45
2018-06-23T04:46:29.416Z,45
2018-06-23T04:47:29.662Z,45
2018-06-23T04:48:28.860Z,45
2018-06-23T04:49:29.634Z,50
2018-06-23T04:50:29.083Z,50
2018-06-23T04:51:29.603Z,45
2018-06-23T04:52:29.064Z,45
2018-06-23T04:53:29.342Z,45
2018-06-23T04:54:29.280Z,45
2018-06-23T04:55:29.043Z,50
2018-06-23T04:56:29.545Z,50
2018-06-23T04:57:29.254Z,50
2018-06-23T04:58:29.229Z,45
2018-06-23T04:59:29.012Z,40
2018-06-23T05:00:29.749Z,40
2018-06-23T05:01:28.912Z,50
2018-06-23T05:02:29.562Z,50
2018-06-23T05:03:29.214Z,55
2018-06-23T05:04:28.878Z,50
2018-06-23T05:05:28.854Z,50
2018-06-23T05:06:29.111Z,50
2018-06-23T05:07:28.564Z,50
2018-06-23T05:08:28.806Z,55
2018-06-23T05:09:28.803Z,60
2018-06-23T05:10:28.812Z,60
2018-06-23T05:11:29.026Z,60
2018-06-23T05:12:29.560Z,60
2018-06-23T05:13:29.004Z,60
2018-06-23T05:14:28.717Z,65
2018-06-23T05:15:28.967Z,65
2018-06-23T05:16:29.236Z,55
2018-06-23T05:17:28.415Z,50
2018-06-23T05:18:28.663Z,55
2018-06-23T05:19:29.182Z,50
2018-06-23T05:20:28.967Z,40
2018-06-23T05:21:28.611Z,35
2018-06-23T05:22:28.616Z,35
2018-06-23T05:23:28.679Z,40
2018-06-23T05:24:28.299Z,40
2018-06-23T05:25:28.300Z,40
2018-06-23T05:26:28.537Z,40
2018-06-23T05:27:29.089Z,45
2018-06-23T05:28:27.983Z,50
2018-06-23T05:29:28.755Z,50
2018-06-23T05:30:28.752Z,40
2018-06-23T05:31:28.193Z,40
2018-06-23T05:32:28.183Z,40
2018-06-23T05:33:28.552Z,40
2018-06-23T05:34:28.940Z,40
2018-06-23T05:35:28.668Z,40
2018-06-23T05:36:28.390Z,35
2018-06-23T05:37:27.842Z,35
2018-06-23T05:38:28.612Z,40
2018-06-23T05:39:28.351Z,40
2018-06-23T05:40:28.595Z,40
2018-06-23T05:41:28.326Z,40
2018-06-23T05:42:28.558Z,40
2018-06-23T05:43:28.600Z,40
2018-06-23T05:44:28.530Z,35
2018-06-23T05:45:28.523Z,35
2018-06-23T05:46:28.504Z,35
2018-06-23T05:47:28.760Z,35
2018-06-23T05:48:28.206Z,30
2018-06-23T05:49:28.464Z,30
2018-06-23T05:50:28.171Z,30
2018-06-23T05:51:28.639Z,30
2018-06-23T05:52:27.873Z,30
2018-06-23T05:53:28.123Z,35
2018-06-23T05:54:28.114Z,30
2018-06-23T05:55:28.100Z,30
2018-06-23T05:56:28.090Z,30
2018-06-23T05:57:28.329Z,25
2018-06-23T05:58:28.055Z,30
2018-06-23T05:59:28.042Z,30
2018-06-23T06:00:27.759Z,30
2018-06-23T06:01:28.276Z,40
2018-06-23T06:02:28.520Z,40
2018-06-23T06:03:27.716Z,40
2018-06-23T06:04:27.696Z,40
2018-06-23T06:05:28.082Z,45
2018-06-23T06:06:27.933Z,40
2018-06-23T06:07:27.386Z,40
2018-06-23T06:08:28.436Z,55
2018-06-23T06:09:27.623Z,70
2018-06-23T06:10:27.881Z,100
2018-06-23T06:11:27.597Z,120
2018-06-23T06:12:27.840Z,115
2018-06-23T06:13:27.855Z,80
2018-06-23T06:14:28.080Z,55
2018-06-23T06:15:27.532Z,50
2018-06-23T06:16:27.809Z,65
2018-06-23T06:17:27.762Z,85
2018-06-23T06:18:27.755Z,120
2018-06-23T06:19:27.745Z,140
2018-06-23T06:20:27.977Z,135
2018-06-23T06:21:27.184Z,130
2018-06-23T06:22:27.962Z,130
2018-06-23T06:23:27.674Z,130
2018-06-23T06:24:27.672Z,130
2018-06-23T06:25:28.191Z,225
2018-06-23T06:26:27.109Z,175
2018-06-23T06:27:27.358Z,130
2018-06-23T06:28:27.877Z,120
2018-06-23T06:29:28.321Z,125
2018-06-23T06:30:27.582Z,165
2018-06-23T06:31:27.568Z,160
2018-06-23T06:32:27.820Z,170
2018-06-23T06:33:27.534Z,170
2018-06-23T06:34:27.515Z,200
2018-06-23T06:35:28.175Z,210
2018-06-23T06:36:27.487Z,150
2018-06-23T06:37:27.741Z,120
2018-06-23T06:38:27.458Z,130
2018-06-23T06:39:27.986Z,135
2018-06-23T06:40:27.437Z,145
2018-06-23T06:41:27.163Z,140
2018-06-23T06:42:26.885Z,140
2018-06-23T06:43:27.405Z,140
2018-06-23T06:44:27.397Z,155
2018-06-23T06:45:27.377Z,160
2018-06-23T06:46:27.671Z,160
2018-06-23T06:47:27.884Z,175
2018-06-23T06:48:27.589Z,275
2018-06-23T06:49:27.319Z,140
2018-06-23T06:50:27.316Z,115
2018-06-23T06:51:27.289Z,140
2018-06-23T06:52:27.281Z,135
2018-06-23T06:53:27.258Z,150
2018-06-23T06:54:27.509Z,150
2018-06-23T06:55:27.491Z,135
2018-06-23T06:56:27.475Z,135
2018-06-23T06:57:27.465Z,125
2018-06-23T06:58:27.176Z,115
2018-06-23T06:59:27.484Z,95
2018-06-23T07:00:27.152Z,120
2018-06-23T07:01:27.410Z,165
2018-06-23T07:02:27.445Z,235
2018-06-23T07:03:27.129Z,150
2018-06-23T07:04:27.110Z,120
2018-06-23T07:05:27.614Z,180
2018-06-23T07:06:27.080Z,165
2018-06-23T07:07:27.393Z,195
2018-06-23T07:08:27.052Z,160
2018-06-23T07:09:26.770Z,125
2018-06-23T07:10:27.017Z,135
2018-06-23T07:11:27.280Z,140
2018-06-23T07:12:26.727Z,140
2018-06-23T07:13:27.509Z,175
2018-06-23T07:14:26.970Z,160
2018-06-23T07:15:27.310Z,130
2018-06-23T07:16:26.937Z,135
2018-06-23T07:17:26.940Z,160
2018-06-23T07:18:26.915Z,145
2018-06-23T07:19:27.170Z,155
2018-06-23T07:20:27.140Z,120
2018-06-23T07:21:26.891Z,115
2018-06-23T07:22:27.126Z,135
2018-06-23T07:23:27.211Z,125
2018-06-23T07:24:26.570Z,135
2018-06-23T07:25:26.820Z,160
2018-06-23T07:26:27.082Z,160
2018-06-23T07:27:26.798Z,165
2018-06-23T07:28:27.046Z,120
2018-06-23T07:29:26.775Z,95
2018-06-23T07:30:26.227Z,100
2018-06-23T07:31:26.744Z,110
2018-06-23T07:32:27.272Z,140
2018-06-23T07:33:27.030Z,240
2018-06-23T07:34:27.389Z,240
2018-06-23T07:35:26.435Z,175
2018-06-23T07:36:26.157Z,365
2018-06-23T07:37:27.201Z,165
2018-06-23T07:38:26.906Z,225
2018-06-23T07:39:26.638Z,385
2018-06-23T07:40:26.625Z,160
2018-06-23T07:41:26.883Z,205
2018-06-23T07:42:26.874Z,210
2018-06-23T07:43:26.854Z,205
2018-06-23T07:44:26.856Z,220
2018-06-23T07:45:27.099Z,230
2018-06-23T07:46:26.293Z,195
2018-06-23T07:47:26.541Z,240
2018-06-23T07:48:26.534Z,425
2018-06-23T07:49:26.517Z,555
2018-06-23T07:50:26.505Z,355
2018-06-23T07:51:26.512Z,405
2018-06-23T07:52:26.743Z,195
2018-06-23T07:53:25.946Z,145
2018-06-23T07:54:27.000Z,310
2018-06-23T07:55:26.985Z,255
2018-06-23T07:56:26.924Z,245
2018-06-23T07:57:26.700Z,220
2018-06-23T07:58:26.944Z,305
2018-06-23T07:59:26.141Z,330
2018-06-23T08:00:26.121Z,975
2018-06-23T08:01:26.375Z,250
2018-06-23T08:02:26.627Z,210
2018-06-23T08:03:26.355Z,1130
2018-06-23T08:04:26.612Z,1540
2018-06-23T08:05:26.340Z,1610
2018-06-23T08:06:26.331Z,1715
2018-06-23T08:07:26.584Z,1720
2018-06-23T08:08:26.297Z,1805
2018-06-23T08:09:26.292Z,1755
2018-06-23T08:10:26.546Z,1080
2018-06-23T08:11:26.282Z,135
2018-06-23T08:12:26.532Z,130
2018-06-23T08:13:26.534Z,125
2018-06-23T08:14:26.518Z,130
2018-06-23T08:15:25.980Z,125
2018-06-23T08:16:26.771Z,115
2018-06-23T08:17:26.230Z,1540
2018-06-23T08:18:26.548Z,1210
2018-06-23T08:19:26.216Z,1365
2018-06-23T08:20:26.203Z,815
2018-06-23T08:21:26.456Z,1545
2018-06-23T08:22:25.938Z,1445
2018-06-23T08:23:26.183Z,715
2018-06-23T08:24:26.173Z,1070
2018-06-23T08:25:25.643Z,1280
2018-06-23T08:26:26.396Z,1260
2018-06-23T08:27:25.622Z,895
2018-06-23T08:28:25.988Z,675
2018-06-23T08:29:26.720Z,230
2018-06-23T08:30:26.409Z,195
2018-06-23T08:31:26.388Z,195
2018-06-23T08:32:26.382Z,230
2018-06-23T08:33:25.853Z,250
2018-06-23T08:34:26.118Z,180
2018-06-23T08:35:26.369Z,145
2018-06-23T08:36:26.623Z,180
2018-06-23T08:37:26.616Z,570
2018-06-23T08:38:26.615Z,415
2018-06-23T08:39:26.082Z,370
2018-06-23T08:40:26.067Z,290
2018-06-23T08:41:25.794Z,260
2018-06-23T08:42:25.792Z,520
2018-06-23T08:43:25.852Z,340
2018-06-23T08:44:26.301Z,280
2018-06-23T08:45:26.031Z,475
2018-06-23T08:46:26.295Z,675
2018-06-23T08:47:26.011Z,1865
2018-06-23T08:48:26.270Z,690
2018-06-23T08:49:25.469Z,490
2018-06-23T08:50:26.249Z,825
2018-06-23T08:51:26.514Z,1900
2018-06-23T08:52:25.708Z,1360
2018-06-23T08:53:25.964Z,1200
2018-06-23T08:54:25.955Z,205
2018-06-23T08:55:26.237Z,1180
2018-06-23T08:56:26.209Z,385
2018-06-23T08:57:25.941Z,1100
2018-06-23T08:58:25.670Z,1195
2018-06-23T08:59:26.194Z,210
2018-06-23T09:00:26.187Z,1895
2018-06-23T09:01:25.911Z,1985
2018-06-23T09:02:25.916Z,1985
2018-06-23T09:03:25.637Z,1505
2018-06-23T09:04:26.164Z,1880
2018-06-23T09:05:25.984Z,1835
2018-06-23T09:06:26.149Z,530
2018-06-23T09:07:26.152Z,1600
2018-06-23T09:08:26.145Z,1540
2018-06-23T09:09:25.906Z,750
2018-06-23T09:10:26.150Z,445
2018-06-23T09:11:26.128Z,355
2018-06-23T09:12:26.125Z,415
2018-06-23T09:13:26.383Z,515
2018-06-23T09:14:26.115Z,785
2018-06-23T09:15:25.844Z,1025
2018-06-23T09:16:25.834Z,740
2018-06-23T09:17:25.568Z,1340
2018-06-23T09:18:25.824Z,375
2018-06-23T09:19:25.555Z,340
2018-06-23T09:20:25.550Z,415
2018-06-23T09:21:26.081Z,410
2018-06-23T09:22:26.074Z,350
2018-06-23T09:23:25.868Z,1410
2018-06-23T09:24:26.082Z,295
2018-06-23T09:25:29.895Z,230
2018-06-23T09:26:27.988Z,240
2018-06-23T09:27:26.468Z,245
2018-06-23T09:28:25.546Z,1965
2018-06-23T09:29:26.063Z,2090
2018-06-23T09:30:25.773Z,740
2018-06-23T09:31:26.304Z,1585
2018-06-23T09:32:25.975Z,1650
2018-06-23T09:33:26.289Z,450
2018-06-23T09:34:26.068Z,680
2018-06-23T09:35:26.022Z,475
2018-06-23T09:36:25.742Z,1800
2018-06-23T09:37:25.734Z,1700
2018-06-23T09:38:26.290Z,2055
2018-06-23T09:39:26.006Z,1060
2018-06-23T09:40:26.277Z,610
2018-06-23T09:41:25.986Z,1120
2018-06-23T09:42:25.976Z,550
2018-06-23T09:43:25.469Z,1880
2018-06-23T09:44:25.975Z,500
2018-06-23T09:45:25.969Z,500
2018-06-23T09:46:25.952Z,340
2018-06-23T09:47:25.958Z,255
2018-06-23T09:48:25.970Z,205
2018-06-23T09:49:25.432Z,235
2018-06-23T09:50:25.415Z,390
2018-06-23T09:51:26.226Z,315
2018-06-23T09:52:26.214Z,270
2018-06-23T09:53:25.674Z,470
2018-06-23T09:54:25.390Z,320
2018-06-23T09:55:25.383Z,225
2018-06-23T09:56:25.924Z,320
2018-06-23T09:57:25.377Z,340
2018-06-23T09:58:25.386Z,675
2018-06-23T09:59:25.377Z,500
2018-06-23T10:00:25.367Z,1440
2018-06-23T10:01:25.626Z,355
2018-06-23T10:02:26.142Z,360
2018-06-23T10:03:25.084Z,270
2018-06-23T10:04:25.602Z,365
2018-06-23T10:05:25.872Z,395
2018-06-23T10:06:25.330Z,335
2018-06-23T10:07:25.866Z,1840
2018-06-23T10:08:25.915Z,2130
2018-06-23T10:09:25.850Z,500
2018-06-23T10:10:25.851Z,1605
2018-06-23T10:11:25.572Z,425
2018-06-23T10:12:25.547Z,270
2018-06-23T10:13:25.301Z,200
2018-06-23T10:14:25.555Z,250
2018-06-23T10:15:25.914Z,550
2018-06-23T10:16:25.274Z,265
2018-06-23T10:17:25.588Z,1165
2018-06-23T10:18:25.003Z,520
2018-06-23T10:19:25.518Z,320
2018-06-23T10:20:25.525Z,285
2018-06-23T10:21:25.874Z,290
2018-06-23T10:22:25.505Z,315
2018-06-23T10:23:25.787Z,320
2018-06-23T10:24:26.068Z,220
2018-06-23T10:25:26.021Z,235
2018-06-23T10:26:25.479Z,280
2018-06-23T10:27:25.339Z,245
2018-06-23T10:28:25.725Z,235
2018-06-23T10:29:25.732Z,250
2018-06-23T10:30:25.477Z,300
2018-06-23T10:31:25.978Z,390
2018-06-23T10:32:25.711Z,760
2018-06-23T10:33:25.695Z,465
2018-06-23T10:34:26.059Z,360
2018-06-23T10:35:25.682Z,435
2018-06-23T10:36:25.414Z,495
2018-06-23T10:37:25.701Z,440
2018-06-23T10:38:25.613Z,505
2018-06-23T10:39:25.395Z,315
2018-06-23T10:40:24.877Z,295
2018-06-23T10:41:25.645Z,350
2018-06-23T10:42:25.375Z,330
2018-06-23T10:43:25.631Z,430
2018-06-23T10:44:25.357Z,305
2018-06-23T10:45:25.620Z,430
2018-06-23T10:46:25.909Z,490
2018-06-23T10:47:25.888Z,390
2018-06-23T10:48:25.592Z,290
2018-06-23T10:49:25.329Z,330
2018-06-23T10:50:25.317Z,440
2018-06-23T10:51:25.584Z,545
2018-06-23T10:52:25.845Z,605
2018-06-23T10:53:25.306Z,425
2018-06-23T10:54:25.590Z,420
2018-06-23T10:55:25.281Z,280
2018-06-23T10:56:25.277Z,255
2018-06-23T10:57:25.518Z,295
2018-06-23T10:58:25.263Z,305
2018-06-23T10:59:24.988Z,370
2018-06-23T11:00:25.529Z,460
2018-06-23T11:01:25.255Z,625
2018-06-23T11:02:25.233Z,1755
2018-06-23T11:03:25.488Z,1830
2018-06-23T11:04:25.483Z,970
2018-06-23T11:05:25.790Z,735
2018-06-23T11:06:25.217Z,1760
2018-06-23T11:07:25.194Z,610
2018-06-23T11:08:25.203Z,860
2018-06-23T11:09:25.438Z,475
2018-06-23T11:10:25.697Z,470
2018-06-23T11:11:25.721Z,570
2018-06-23T11:12:25.159Z,710
2018-06-23T11:13:25.165Z,565
2018-06-23T11:14:25.442Z,435
2018-06-23T11:15:25.428Z,395
2018-06-23T11:16:25.695Z,375
2018-06-23T11:17:25.423Z,330
2018-06-23T11:18:25.164Z,260
2018-06-23T11:19:24.896Z,295
2018-06-23T11:20:25.655Z,310
2018-06-23T11:21:25.377Z,295
2018-06-23T11:22:25.651Z,335
2018-06-23T11:23:25.366Z,235
2018-06-23T11:24:25.549Z,210
2018-06-23T11:25:25.555Z,255
2018-06-23T11:26:25.350Z,380
2018-06-23T11:27:25.070Z,995
2018-06-23T11:28:25.332Z,695
2018-06-23T11:29:25.064Z,595
2018-06-23T11:30:25.048Z,465
2018-06-23T11:31:25.326Z,405
2018-06-23T11:32:24.771Z,325
2018-06-23T11:33:25.030Z,300
2018-06-23T11:34:25.308Z,365
2018-06-23T11:35:25.028Z,360
2018-06-23T11:36:25.280Z,415
2018-06-23T11:37:25.532Z,510
2018-06-23T11:38:25.266Z,420
2018-06-23T11:39:25.260Z,505
2018-06-23T11:40:25.253Z,300
2018-06-23T11:41:26.035Z,310
2018-06-23T11:42:24.981Z,260
2018-06-23T11:43:24.696Z,230
2018-06-23T11:44:25.032Z,200
2018-06-23T11:45:24.954Z,270
2018-06-23T11:46:25.524Z,385
2018-06-23T11:47:25.474Z,465
2018-06-23T11:48:25.462Z,615
2018-06-23T11:49:25.196Z,1205
2018-06-23T11:50:24.652Z,1345
2018-06-23T11:51:24.785Z,970
2018-06-23T11:52:24.509Z,765
2018-06-23T11:53:24.889Z,745
2018-06-23T11:54:25.153Z,870
2018-06-23T11:55:25.403Z,645
2018-06-23T11:56:25.144Z,815
2018-06-23T11:57:24.864Z,385
2018-06-23T11:58:25.146Z,265
2018-06-23T11:59:25.429Z,200
2018-06-23T12:00:25.126Z,165
2018-06-23T12:01:25.380Z,170
2018-06-23T12:02:25.112Z,230
2018-06-23T12:03:24.868Z,320
2018-06-23T12:04:24.886Z,1035
2018-06-23T12:05:25.547Z,410
2018-06-23T12:06:24.555Z,455
2018-06-23T12:07:25.066Z,710
2018-06-23T12:08:24.824Z,640
2018-06-23T12:09:25.261Z,865
2018-06-23T12:10:24.798Z,750
2018-06-23T12:11:24.782Z,845
2018-06-23T12:12:24.785Z,775
2018-06-23T12:13:25.030Z,775
2018-06-23T12:14:25.078Z,860
2018-06-23T12:15:25.039Z,880
2018-06-23T12:16:24.493Z,910
2018-06-23T12:17:25.011Z,1255
2018-06-23T12:18:24.742Z,820
2018-06-23T12:19:25.009Z,615
2018-06-23T12:20:25.334Z,560
2018-06-23T12:21:25.031Z,565
2018-06-23T12:22:24.978Z,1780
2018-06-23T12:23:25.237Z,405
2018-06-23T12:24:24.439Z,435
2018-06-23T12:25:24.548Z,435
2018-06-23T12:26:24.963Z,355
2018-06-23T12:27:24.962Z,280
2018-06-23T12:28:24.689Z,240
2018-06-23T12:29:24.945Z,225
2018-06-23T12:30:25.044Z,225
2018-06-23T12:31:24.927Z,195
2018-06-23T12:32:24.971Z,155
2018-06-23T12:33:24.763Z,135
2018-06-23T12:34:24.776Z,165
2018-06-23T12:35:25.172Z,195
2018-06-23T12:36:24.109Z,220
2018-06-23T12:37:24.637Z,225
2018-06-23T12:38:24.638Z,205
2018-06-23T12:39:24.885Z,205
2018-06-23T12:40:24.381Z,260
2018-06-23T12:41:24.443Z,315
2018-06-23T12:42:24.653Z,435
2018-06-23T12:43:24.606Z,405
2018-06-23T12:44:24.858Z,395
2018-06-23T12:45:24.315Z,540
2018-06-23T12:46:24.840Z,515
2018-06-23T12:47:24.322Z,270
2018-06-23T12:48:24.965Z,205
2018-06-23T12:49:24.551Z,180
2018-06-23T12:50:24.598Z,175
2018-06-23T12:51:24.803Z,215
2018-06-23T12:52:24.791Z,280
2018-06-23T12:53:24.527Z,390
2018-06-23T12:54:25.070Z,470
2018-06-23T12:55:25.051Z,480
2018-06-23T12:56:24.503Z,660
2018-06-23T12:57:25.036Z,485
2018-06-23T12:58:24.488Z,440
2018-06-23T12:59:24.759Z,510
2018-06-23T13:00:25.014Z,790
2018-06-23T13:01:24.201Z,605
2018-06-23T13:02:24.730Z,520
2018-06-23T13:03:24.450Z,310
2018-06-23T13:04:24.717Z,235
2018-06-23T13:05:24.711Z,180
2018-06-23T13:06:24.171Z,155
2018-06-23T13:07:24.972Z,125
2018-06-23T13:08:24.157Z,100
2018-06-23T13:09:24.155Z,95
2018-06-23T13:10:24.149Z,105
2018-06-23T13:11:24.681Z,185
2018-06-23T13:12:24.443Z,180
2018-06-23T13:13:24.393Z,150
2018-06-23T13:14:24.379Z,130
2018-06-23T13:15:24.656Z,140
2018-06-23T13:16:24.363Z,150
2018-06-23T13:17:24.615Z,180
2018-06-23T13:18:24.076Z,240
2018-06-23T13:19:24.339Z,335
2018-06-23T13:20:24.341Z,595
2018-06-23T13:21:24.867Z,1685
2018-06-23T13:22:24.435Z,2040
2018-06-23T13:23:24.311Z,1985
2018-06-23T13:24:24.311Z,1980
2018-06-23T13:25:24.261Z,2040
2018-06-23T13:26:24.554Z,2065
2018-06-23T13:27:24.022Z,1750
2018-06-23T13:28:24.544Z,870
2018-06-23T13:29:24.275Z,390
2018-06-23T13:30:23.997Z,325
2018-06-23T13:31:24.795Z,270
2018-06-23T13:32:24.340Z,220
2018-06-23T13:33:24.250Z,170
2018-06-23T13:34:23.985Z,200
2018-06-23T13:35:24.781Z,190
2018-06-23T13:36:24.501Z,165
2018-06-23T13:37:24.498Z,165
2018-06-23T13:38:24.231Z,165
2018-06-23T13:39:23.985Z,175
2018-06-23T13:40:24.763Z,200
2018-06-23T13:41:24.482Z,235
2018-06-23T13:42:24.206Z,1150
2018-06-23T13:43:24.203Z,590
2018-06-23T13:44:24.461Z,1605
2018-06-23T13:45:24.216Z,1675
2018-06-23T13:46:24.224Z,1060
2018-06-23T13:47:24.735Z,575
2018-06-23T13:48:23.917Z,1660
2018-06-23T13:49:24.239Z,1090
2018-06-23T13:50:24.436Z,280
2018-06-23T13:51:24.434Z,245
2018-06-23T13:52:24.426Z,230
2018-06-23T13:53:24.161Z,195
2018-06-23T13:54:24.167Z,160
2018-06-23T13:55:24.431Z,145
2018-06-23T13:56:24.412Z,170
2018-06-23T13:57:24.399Z,215
2018-06-23T13:58:24.391Z,315
2018-06-23T13:59:23.862Z,295
2018-06-23T14:00:24.429Z,290
2018-06-23T14:01:24.376Z,235
2018-06-23T14:02:24.108Z,220
2018-06-23T14:03:25.160Z,240
2018-06-23T14:04:23.828Z,1475